Time;durP1;ratioP1;P1;durP2;ratioP2;P2;SDS_P1;SDS_P2;PMS_P1;PMS_P2;Temp;Humidity;BMP_temperature;BMP_pressure;BME280_temperature;BME280_humidity;BME280_pressure;Samples;Min_cycle;Max_cycle;Signal;HPM_P1;HPM_P2
2022/04/07 00:01:30;;;;;;;6.28;1.30;;;;;;;16.02;51.55;100934.59;5070720;28;20052;-70
2022/04/07 00:03:57;;;;;;;4.27;1.10;;;;;;;16.04;51.11;100948.38;5073376;28;20041;-70
2022/04/07 00:06:24;;;;;;;9.37;1.20;;;;;;;16.00;51.04;100930.41;5055671;28;20065;-70
2022/04/07 00:08:52;;;;;;;3.37;0.90;;;;;;;16.02;50.67;100933.75;5070444;28;20131;-70
2022/04/07 00:11:19;;;;;;;2.50;1.00;;;;;;;16.05;50.86;100941.59;5077258;28;20076;-70
2022/04/07 00:13:46;;;;;;;3.63;0.77;;;;;;;16.05;50.60;100942.41;5075538;28;20128;-75
2022/04/07 00:16:13;;;;;;;6.30;1.10;;;;;;;16.04;50.53;100932.31;5051046;28;20080;-74
2022/04/07 00:18:39;;;;;;;6.23;1.10;;;;;;;16.00;50.87;100930.41;5070203;28;20053;-68
2022/04/07 00:21:06;;;;;;;1.83;0.87;;;;;;;16.04;50.61;100937.94;5069457;28;20135;-70
2022/04/07 00:23:34;;;;;;;3.20;0.77;;;;;;;15.98;50.61;100927.06;5068822;28;20051;-71
2022/04/07 00:26:01;;;;;;;2.20;1.30;;;;;;;15.97;50.17;100940.31;5065654;28;20056;-73
2022/04/07 00:28:28;;;;;;;6.10;1.13;;;;;;;15.98;50.36;100932.69;5069661;28;20113;-71
2022/04/07 00:30:58;;;;;;;8.73;1.30;;;;;;;15.98;50.18;100939.16;5072248;28;20135;-71
2022/04/07 00:33:24;;;;;;;6.78;1.50;;;;;;;15.91;50.17;100918.19;5063364;28;20147;-70
2022/04/07 00:35:51;;;;;;;7.17;1.10;;;;;;;15.96;50.08;100926.53;5071591;28;20048;-70
2022/04/07 00:38:18;;;;;;;2.80;0.90;;;;;;;15.96;49.92;100934.97;5053529;28;20459;-71
2022/04/07 00:40:46;;;;;;;3.60;0.90;;;;;;;15.94;49.86;100937.28;5068077;28;20048;-72
2022/04/07 00:43:28;;;;;;;2.43;0.77;;;;;;;15.86;50.00;100927.53;5070131;28;20084;-71
2022/04/07 00:45:55;;;;;;;5.50;1.10;;;;;;;15.86;49.84;100924.72;5078401;28;20137;-72
2022/04/07 00:48:22;;;;;;;2.20;0.90;;;;;;;15.86;49.91;100925.56;5068859;28;20587;-72
2022/04/07 00:50:49;;;;;;;5.50;1.50;;;;;;;15.88;50.13;100923.28;5070500;28;20140;-72
2022/04/07 00:53:17;;;;;;;2.77;1.00;;;;;;;15.83;50.19;100905.63;5064482;28;20095;-71
2022/04/07 00:55:45;;;;;;;2.17;0.80;;;;;;;15.92;49.92;100923.50;5063757;28;20136;-72
2022/04/07 00:58:12;;;;;;;2.53;0.73;;;;;;;15.90;49.85;100924.94;5075354;28;20583;-72
2022/04/07 01:00:39;;;;;;;1.93;0.90;;;;;;;15.89;49.89;100929.72;5069281;28;20152;-74
2022/04/07 01:03:07;;;;;;;6.97;1.20;;;;;;;15.86;50.14;100930.34;5070228;28;20131;-72
2022/04/07 01:05:34;;;;;;;6.57;1.17;;;;;;;15.81;50.11;100928.47;5073076;28;20106;-73
2022/04/07 01:08:01;;;;;;;1.63;0.90;;;;;;;15.62;50.45;100896.63;5071928;28;20048;-73
2022/04/07 01:10:29;;;;;;;4.07;1.23;;;;;;;15.76;50.47;100914.47;5074719;28;20044;-73
2022/04/07 01:12:55;;;;;;;4.90;1.40;;;;;;;15.64;51.11;100912.09;5077162;28;20048;-73
2022/04/07 01:15:22;;;;;;;4.23;1.00;;;;;;;15.68;51.19;100923.59;5036297;28;20061;-72
2022/04/07 01:17:49;;;;;;;5.73;1.20;;;;;;;15.55;51.16;100899.00;5060698;28;20122;-72
2022/04/07 01:20:16;;;;;;;5.30;1.07;;;;;;;15.75;51.49;100923.22;5063194;28;20140;-73
2022/04/07 01:22:46;;;;;;;4.03;1.10;;;;;;;15.60;51.47;100890.50;5066052;28;20091;-71
2022/04/07 01:25:13;;;;;;;2.05;1.15;;;;;;;15.77;51.62;100927.41;5068321;28;20072;-71
2022/04/07 01:27:40;;;;;;;1.73;1.03;;;;;;;15.80;51.63;100926.78;5066848;28;20048;-72
2022/04/07 01:30:08;;;;;;;4.67;0.90;;;;;;;15.61;51.61;100892.97;5066531;28;20136;-72
2022/04/07 01:32:35;;;;;;;1.37;0.67;;;;;;;15.78;51.91;100931.88;5069428;28;20040;-73
2022/04/07 01:35:02;;;;;;;3.40;1.00;;;;;;;15.72;51.95;100919.03;5068473;28;20131;-71
2022/04/07 01:37:30;;;;;;;4.50;1.00;;;;;;;15.75;52.34;100917.59;5066205;28;20083;-71
2022/04/07 01:40:00;;;;;;;8.40;1.30;;;;;;;15.49;52.29;100874.91;5056699;28;20064;-70
2022/04/07 01:42:27;;;;;;;2.83;0.88;;;;;;;15.63;52.52;100907.59;5067207;28;20462;-71
2022/04/07 01:45:00;;;;;;;8.93;1.23;;;;;;;15.59;52.50;100909.38;5066402;28;20110;-71
2022/04/07 01:47:28;;;;;;;4.73;0.93;;;;;;;15.53;53.03;100888.06;5070433;28;20070;-72
2022/04/07 01:50:03;;;;;;;8.40;1.30;;;;;;;15.58;52.95;100902.03;5068754;28;20175;-72
2022/04/07 01:52:30;;;;;;;2.70;1.17;;;;;;;15.56;53.17;100900.69;5067929;28;20072;-71
2022/04/07 01:54:59;;;;;;;9.13;1.40;;;;;;;15.39;53.08;100870.28;5068608;28;20052;-71
2022/04/07 01:57:26;;;;;;;4.17;0.83;;;;;;;15.58;53.10;100895.56;5068020;28;20080;-70
2022/04/07 01:59:53;;;;;;;4.03;0.90;;;;;;;15.62;53.11;100913.53;5066502;28;20049;-71
2022/04/07 02:02:24;;;;;;;5.83;2.33;;;;;;;15.62;53.34;100907.91;5049068;28;20135;-71
2022/04/07 02:04:52;;;;;;;3.03;0.90;;;;;;;15.62;53.33;100899.44;5062942;28;20088;-70
2022/04/07 02:07:20;;;;;;;4.03;1.10;;;;;;;15.64;53.42;100905.63;5060819;28;20131;-69
2022/04/07 02:09:47;;;;;;;1.67;0.70;;;;;;;15.57;53.79;100908.81;5065964;28;20487;-70
2022/04/07 02:12:14;;;;;;;3.70;1.27;;;;;;;15.53;53.72;100892.84;5070468;28;20094;-70
2022/04/07 02:14:42;;;;;;;5.87;1.00;;;;;;;15.61;53.67;100906.22;5067739;28;20119;-70
2022/04/07 02:17:09;;;;;;;4.63;1.00;;;;;;;15.59;53.75;100894.47;5068015;28;20486;-71
2022/04/07 02:19:36;;;;;;;2.87;0.77;;;;;;;15.59;53.62;100900.09;5067968;28;20114;-72
2022/04/07 02:22:03;;;;;;;7.80;0.93;;;;;;;15.52;53.98;100893.97;5068995;28;20135;-71
2022/04/07 02:24:31;;;;;;;3.73;0.87;;;;;;;15.46;54.01;100892.41;5066132;28;20526;-71
2022/04/07 02:26:57;;;;;;;2.83;1.00;;;;;;;15.44;53.98;100894.69;5067586;28;20058;-71
2022/04/07 02:29:24;;;;;;;5.97;1.50;;;;;;;15.46;54.02;100910.13;5046462;28;20075;-71
2022/04/07 02:31:51;;;;;;;5.13;1.10;;;;;;;15.46;54.14;100900.84;5067770;28;20075;-71
2022/04/07 02:34:18;;;;;;;6.03;1.30;;;;;;;15.45;53.96;100890.72;5062140;28;20055;-71
2022/04/07 02:36:45;;;;;;;10.40;1.53;;;;;;;15.47;53.87;100894.06;5064754;28;20154;-71
2022/04/07 02:39:12;;;;;;;4.57;1.07;;;;;;;15.46;53.89;100892.41;5062765;28;20091;-70
2022/04/07 02:41:38;;;;;;;5.77;1.67;;;;;;;15.49;53.93;100900.25;5066277;28;20141;-71
2022/04/07 02:44:05;;;;;;;3.87;1.00;;;;;;;15.49;53.94;100894.63;5067142;28;20124;-71
2022/04/07 02:46:32;;;;;;;6.33;1.27;;;;;;;15.51;53.91;100895.13;5074272;28;20123;-70
2022/04/07 02:48:59;;;;;;;2.23;1.20;;;;;;;15.49;53.94;100895.44;5070649;28;20050;-73
2022/04/07 02:51:26;;;;;;;3.10;1.10;;;;;;;15.45;53.93;100885.09;5053949;28;20056;-71
2022/04/07 02:53:57;;;;;;;7.67;1.50;;;;;;;15.47;54.06;100885.63;5067048;28;20128;-72
2022/04/07 02:56:25;;;;;;;3.53;1.03;;;;;;;15.40;54.20;100886.84;5071187;28;20060;-72
2022/04/07 02:58:53;;;;;;;7.73;1.53;;;;;;;15.48;54.09;100898.56;5071657;28;20070;-72
2022/04/07 03:01:19;;;;;;;4.23;0.97;;;;;;;15.50;54.08;100893.47;5054230;28;20056;-74
2022/04/07 03:03:48;;;;;;;3.07;0.80;;;;;;;15.46;54.10;100886.78;5072231;28;20538;-72
2022/04/07 03:06:16;;;;;;;5.33;1.30;;;;;;;15.49;54.10;100881.38;5072691;28;20087;-74
2022/04/07 03:08:43;;;;;;;6.53;0.97;;;;;;;15.51;53.90;100895.13;5054444;28;20124;-74
2022/04/07 03:11:10;;;;;;;7.47;1.00;;;;;;;15.49;54.01;100898.25;5071799;28;20132;-75
2022/04/07 03:13:37;;;;;;;5.23;2.03;;;;;;;15.47;54.08;100889.28;5068170;28;20101;-75
2022/04/07 03:16:05;;;;;;;3.93;0.80;;;;;;;15.41;54.18;100880.06;5072012;28;20114;-76
2022/04/07 03:18:34;;;;;;;5.77;1.30;;;;;;;15.37;54.28;100879.00;5070416;28;20081;-73
2022/04/07 03:21:00;;;;;;;6.57;1.20;;;;;;;15.40;54.28;100886.00;5070367;28;20131;-72
2022/04/07 03:23:27;;;;;;;4.67;1.47;;;;;;;15.38;54.36;100886.34;5071305;28;22575;-73
2022/04/07 03:25:54;;;;;;;3.77;1.57;;;;;;;15.17;54.40;100849.19;5053267;28;20076;-72
2022/04/07 03:28:21;;;;;;;1.90;0.67;;;;;;;15.27;54.37;100864.25;5070990;28;20453;-72
2022/04/07 03:30:48;;;;;;;2.77;1.47;;;;;;;15.38;54.37;100885.47;5070906;28;20083;-72
2022/04/07 03:33:15;;;;;;;2.37;0.90;;;;;;;15.27;54.33;100856.66;5069018;28;20087;-73
2022/04/07 03:35:42;;;;;;;5.77;1.37;;;;;;;15.46;54.16;100892.41;5066861;28;20080;-72
2022/04/07 03:38:09;;;;;;;3.97;1.03;;;;;;;15.46;54.38;100883.97;5073256;28;20106;-72
2022/04/07 03:40:36;;;;;;;8.10;1.30;;;;;;;15.40;54.25;100874.75;5069904;28;20151;-72
2022/04/07 03:43:03;;;;;;;6.33;1.10;;;;;;;15.48;54.47;100888.13;5069602;28;20444;-72
2022/04/07 03:45:31;;;;;;;5.13;1.43;;;;;;;15.54;54.32;100886.06;5070955;28;20415;-73
2022/04/07 03:47:58;;;;;;;8.30;1.10;;;;;;;15.52;54.36;100875.13;5068383;28;20131;-72
2022/04/07 03:50:25;;;;;;;3.60;1.17;;;;;;;15.47;54.47;100883.66;5067851;28;20087;-72
2022/04/07 03:52:52;;;;;;;8.73;1.00;;;;;;;15.46;54.57;100886.78;5070534;28;20079;-72
2022/04/07 03:55:20;;;;;;;3.67;0.90;;;;;;;15.37;54.86;100890.28;5063282;28;20673;-71
2022/04/07 03:57:47;;;;;;;8.17;1.30;;;;;;;15.38;54.71;100889.16;5065979;28;20076;-70
2022/04/07 04:00:16;;;;;;;5.23;1.17;;;;;;;15.35;54.88;100883.25;5071839;28;20455;-71
2022/04/07 04:02:43;;;;;;;2.67;0.80;;;;;;;15.19;54.65;100860.16;5068358;28;20353;-71
2022/04/07 04:05:11;;;;;;;6.93;1.53;;;;;;;15.33;54.94;100877.94;5070014;28;20036;-72
2022/04/07 04:07:37;;;;;;;3.57;1.30;;;;;;;15.23;54.74;100851.94;5068074;28;20143;-74
2022/04/07 04:10:05;;;;;;;3.00;1.20;;;;;;;15.29;55.09;100871.25;5068581;28;20080;-73
2022/04/07 04:12:32;;;;;;;5.03;1.00;;;;;;;15.28;55.01;100869.59;5070064;28;20125;-74
2022/04/07 04:15:01;;;;;;;4.00;2.10;;;;;;;15.33;54.81;100877.94;5070582;28;20041;-75
2022/04/07 04:17:31;;;;;;;5.30;1.30;;;;;;;15.32;54.92;100872.66;5069809;28;20056;-73
2022/04/07 04:19:59;;;;;;;14.43;4.10;;;;;;;15.31;54.82;100879.38;5072175;28;20164;-73
2022/04/07 04:22:26;;;;;;;3.53;1.27;;;;;;;15.34;54.81;100875.97;5069152;28;20566;-71
2022/04/07 04:24:53;;;;;;;2.87;0.90;;;;;;;15.25;54.83;100875.84;5070753;28;20132;-72
2022/04/07 04:27:20;;;;;;;2.57;1.07;;;;;;;15.20;55.08;100861.81;5067974;28;20080;-71
2022/04/07 04:29:47;;;;;;;4.40;0.90;;;;;;;15.30;54.88;100878.56;5069262;28;20091;-71
2022/04/07 04:32:14;;;;;;;1.73;0.80;;;;;;;15.33;54.82;100883.56;5071009;28;20633;-71
2022/04/07 04:34:42;;;;;;;6.37;1.00;;;;;;;15.32;54.54;100875.47;5061685;28;20056;-71
2022/04/07 04:37:10;;;;;;;5.00;1.53;;;;;;;15.22;54.33;100865.19;5070370;28;20115;-72
2022/04/07 04:39:37;;;;;;;3.40;1.30;;;;;;;15.29;54.21;100874.09;5069954;28;20135;-72
2022/04/07 04:42:05;;;;;;;3.33;1.60;;;;;;;15.18;54.25;100852.88;5070782;28;20080;-71
2022/04/07 04:44:32;;;;;;;2.37;1.00;;;;;;;15.34;54.09;100875.97;5073332;28;20135;-71
2022/04/07 04:46:59;;;;;;;4.90;1.20;;;;;;;15.26;54.00;100865.41;5072954;28;20477;-71
2022/04/07 04:49:26;;;;;;;5.07;1.10;;;;;;;15.22;54.06;100865.19;5073101;28;20443;-71
2022/04/07 04:51:53;;;;;;;2.30;0.80;;;;;;;15.27;54.07;100869.91;5073037;28;20192;-71
2022/04/07 04:54:20;;;;;;;4.53;0.90;;;;;;;15.35;54.05;100889.75;5074137;28;21429;-71
2022/04/07 04:56:47;;;;;;;5.30;1.10;;;;;;;15.37;54.03;100887.44;5069491;28;20079;-70
2022/04/07 04:59:14;;;;;;;6.00;1.27;;;;;;;15.37;54.01;100884.63;5069273;28;20080;-71
2022/04/07 05:01:41;;;;;;;5.63;1.67;;;;;;;15.45;53.97;100899.16;5068474;28;20143;-71
2022/04/07 05:04:08;;;;;;;3.00;1.23;;;;;;;15.41;53.73;100890.50;5068193;28;20180;-71
2022/04/07 05:06:35;;;;;;;2.53;1.23;;;;;;;15.49;53.71;100903.91;5067417;28;20545;-72
2022/04/07 05:09:02;;;;;;;5.47;1.10;;;;;;;15.52;53.92;100902.41;5055009;28;20144;-72
2022/04/07 05:11:30;;;;;;;3.30;0.83;;;;;;;15.51;53.71;100904.41;5070195;28;20052;-71
2022/04/07 05:13:58;;;;;;;8.63;1.73;;;;;;;15.44;53.72;100894.69;5068299;28;20041;-72
2022/04/07 05:16:25;;;;;;;2.93;0.90;;;;;;;15.47;53.86;100899.72;5052029;28;20536;-71
2022/04/07 05:18:52;;;;;;;5.53;1.20;;;;;;;15.45;53.66;100885.91;5066587;28;20139;-72
2022/04/07 05:21:19;;;;;;;4.03;1.30;;;;;;;15.53;53.70;100898.50;5066596;28;20080;-73
2022/04/07 05:23:46;;;;;;;6.10;1.10;;;;;;;15.55;53.83;100901.81;5068120;28;20459;-74
2022/04/07 05:26:13;;;;;;;7.17;1.30;;;;;;;15.47;54.07;100894.06;5068838;28;20048;-73
2022/04/07 05:28:41;;;;;;;9.93;1.17;;;;;;;15.26;54.17;100866.25;5047283;28;20147;-75
2022/04/07 05:31:08;;;;;;;5.23;0.83;;;;;;;15.53;54.42;100899.31;5064315;28;20550;-77
2022/04/07 05:33:36;;;;;;;3.07;1.10;;;;;;;15.41;54.37;100896.13;5060953;28;20132;-72
2022/04/07 05:36:03;;;;;;;6.83;1.10;;;;;;;15.44;54.33;100906.78;5036695;28;20147;-72
2022/04/07 05:38:30;;;;;;;3.83;1.00;;;;;;;15.39;54.64;100901.22;5063192;28;20059;-71
2022/04/07 05:40:57;;;;;;;4.37;1.20;;;;;;;15.27;54.60;100878.34;5067354;28;20128;-72
2022/04/07 05:43:24;;;;;;;6.17;1.80;;;;;;;15.47;54.59;100897.72;5064299;28;20098;-72
2022/04/07 05:45:52;;;;;;;3.83;1.30;;;;;;;15.53;54.57;100902.13;5058658;28;20085;-71
2022/04/07 05:48:19;;;;;;;2.87;1.40;;;;;;;15.57;54.73;100902.34;5061165;28;20072;-72
2022/04/07 05:50:46;;;;;;;3.27;1.17;;;;;;;15.50;54.96;100910.34;5063127;28;20567;-72
2022/04/07 05:53:13;;;;;;;3.10;1.63;;;;;;;15.45;55.29;100899.16;5067713;28;20072;-72
2022/04/07 05:55:40;;;;;;;7.67;1.20;;;;;;;15.31;55.19;100899.91;5074098;28;20127;-72
2022/04/07 05:58:08;;;;;;;5.43;1.30;;;;;;;15.36;55.43;100899.84;5066094;28;20522;-72
2022/04/07 06:00:38;;;;;;;6.47;1.50;;;;;;;15.40;55.51;100895.28;5069273;28;20078;-71
2022/04/07 06:03:05;;;;;;;7.07;1.47;;;;;;;15.38;55.76;100903.22;5067918;28;20086;-72
2022/04/07 06:05:32;;;;;;;3.43;1.10;;;;;;;15.32;55.70;100910.06;5069191;28;20091;-71
2022/04/07 06:08:01;;;;;;;5.30;1.70;;;;;;;15.28;56.03;100903.38;5065906;28;20141;-72
2022/04/07 06:10:29;;;;;;;4.03;1.00;;;;;;;15.09;55.87;100865.94;5063414;28;20087;-71
2022/04/07 06:12:56;;;;;;;5.23;0.90;;;;;;;15.18;55.92;100889.44;5068213;28;20149;-70
2022/04/07 06:15:23;;;;;;;3.80;1.00;;;;;;;15.18;56.14;100889.44;5047779;28;20041;-70
2022/04/07 06:17:50;;;;;;;5.33;1.23;;;;;;;15.21;56.19;100888.81;5068086;28;20120;-72
2022/04/07 06:20:18;;;;;;;6.13;1.57;;;;;;;15.28;55.94;100908.13;5065938;28;20041;-72
2022/04/07 06:22:45;;;;;;;5.77;1.47;;;;;;;14.92;56.25;100863.66;5047924;28;20079;-71
2022/04/07 06:25:15;;;;;;;5.33;1.33;;;;;;;15.23;56.17;100897.81;5065348;28;20051;-71
2022/04/07 06:27:50;;;;;;;3.83;1.53;;;;;;;15.36;56.13;100916.75;5060011;28;20135;-72
2022/04/07 06:30:19;;;;;;;7.70;1.60;;;;;;;15.34;56.04;100913.38;5058998;28;20423;-71
2022/04/07 06:32:47;;;;;;;7.13;1.40;;;;;;;15.38;56.30;100916.44;5057991;28;20172;-71
2022/04/07 06:35:15;;;;;;;4.97;1.40;;;;;;;15.43;56.21;100924.81;5070787;28;20102;-72
2022/04/07 06:37:54;;;;;;;4.03;1.60;;;;;;;15.34;56.29;100919.00;5070358;28;20083;-72
2022/04/07 06:40:29;;;;;;;4.67;1.80;;;;;;;15.34;56.50;100924.63;5069465;28;20092;-72
2022/04/07 06:42:58;;;;;;;2.43;1.10;;;;;;;15.26;56.75;100916.88;5065931;28;20105;-72
2022/04/07 06:45:26;;;;;;;11.87;2.43;;;;;;;15.38;56.64;100917.28;5070433;28;20170;-71
2022/04/07 06:47:55;;;;;;;11.65;1.67;;;;;;;15.39;56.81;100915.31;5072274;28;20074;-71
2022/04/07 06:50:26;;;;;;;3.83;1.17;;;;;;;15.37;56.73;100921.22;5070070;28;20048;-72
2022/04/07 06:52:54;;;;;;;6.20;1.53;;;;;;;15.43;56.87;100938.88;5078777;28;20135;-72
2022/04/07 06:55:22;;;;;;;4.20;1.20;;;;;;;15.33;56.99;100910.88;5051481;28;20131;-72
2022/04/07 06:57:55;;;;;;;9.47;1.13;;;;;;;15.43;57.17;100943.69;5052141;28;20432;-72
2022/04/07 07:00:25;;;;;;;7.60;1.60;;;;;;;15.40;56.87;100931.88;5052445;28;20080;-71
2022/04/07 07:02:54;;;;;;;5.18;1.25;;;;;;;15.31;56.93;100915.97;5052590;28;20095;-72
2022/04/07 07:05:23;;;;;;;9.70;1.83;;;;;;;15.30;56.96;100915.13;5052460;28;20098;-72
2022/04/07 07:07:50;;;;;;;3.93;1.60;;;;;;;15.40;56.79;100942.31;5052304;28;20137;-72
2022/04/07 07:10:22;;;;;;;7.00;1.67;;;;;;;15.40;56.85;100947.94;5052443;28;20049;-71
2022/04/07 07:12:50;;;;;;;4.80;1.43;;;;;;;15.36;57.01;100950.50;5052199;28;20059;-72
2022/04/07 07:15:18;;;;;;;7.57;1.50;;;;;;;15.13;57.13;100921.28;5051906;28;20288;-72
2022/04/07 07:17:44;;;;;;;10.23;1.93;;;;;;;15.22;57.36;100943.97;5051932;28;20139;-72
2022/04/07 07:20:11;;;;;;;6.03;1.60;;;;;;;15.25;56.94;100931.28;5052126;28;20102;-73
2022/04/07 07:22:42;;;;;;;6.73;1.93;;;;;;;15.18;56.84;100920.41;5055913;28;20076;-72
2022/04/07 07:25:11;;;;;;;5.73;1.47;;;;;;;15.26;56.72;100942.22;5072185;28;20488;-73
2022/04/07 07:27:41;;;;;;;6.88;1.67;;;;;;;15.22;56.72;100943.97;5072141;28;20135;-71
2022/04/07 07:30:09;;;;;;;6.13;2.10;;;;;;;15.30;56.47;100965.78;5072436;28;20492;-71
2022/04/07 07:32:40;;;;;;;6.27;1.70;;;;;;;15.35;56.37;100965.72;5075509;28;20368;-71
2022/04/07 07:35:08;;;;;;;5.40;1.57;;;;;;;15.35;56.14;100960.09;5075723;28;20040;-71
2022/04/07 07:37:35;;;;;;;2.03;1.30;;;;;;;15.27;56.21;100943.03;5075694;28;20083;-72
2022/04/07 07:40:07;;;;;;;5.57;2.07;;;;;;;15.26;56.12;100932.94;5075798;28;20103;-72
2022/04/07 07:42:40;;;;;;;9.07;2.00;;;;;;;15.23;55.91;100944.78;5075610;28;20458;-71
2022/04/07 07:45:07;;;;;;;5.20;2.50;;;;;;;15.31;55.73;100950.56;5072478;28;20676;-71
2022/04/07 07:47:35;;;;;;;2.77;1.07;;;;;;;15.06;55.70;100897.47;5066186;28;20084;-71
2022/04/07 07:50:03;;;;;;;6.13;1.60;;;;;;;15.19;55.70;100935.28;5073357;28;20595;-72
2022/04/07 07:52:32;;;;;;;5.40;1.80;;;;;;;15.35;55.40;100960.09;5071778;28;20116;-73
2022/04/07 07:54:59;;;;;;;4.78;1.23;;;;;;;15.32;55.54;100957.91;5073252;28;20139;-72
2022/04/07 07:57:26;;;;;;;13.47;2.83;;;;;;;15.21;55.33;100945.09;5069587;28;20181;-71
2022/04/07 07:59:53;;;;;;;8.17;1.50;;;;;;;15.10;55.21;100938.75;5054796;28;22977;-72
2022/04/07 08:02:20;;;;;;;6.57;1.83;;;;;;;15.40;54.76;100962.84;5073094;28;20083;-71
2022/04/07 08:04:47;;;;;;;13.23;2.00;;;;;;;15.43;54.64;100960.56;5073721;28;20076;-72
2022/04/07 08:07:14;;;;;;;7.40;2.30;;;;;;;15.54;54.66;100964.91;5073307;28;20048;-71
2022/04/07 08:09:41;;;;;;;11.53;2.77;;;;;;;15.63;54.56;100971.53;5053538;28;20072;-72
2022/04/07 08:12:08;;;;;;;9.60;4.40;;;;;;;15.62;54.21;100967.88;5073008;28;20087;-72
2022/04/07 08:14:35;;;;;;;3.20;1.87;;;;;;;15.61;54.28;100968.16;5072513;28;20522;-72
2022/04/07 08:17:02;;;;;;;4.67;1.80;;;;;;;15.67;54.42;100966.97;5073939;28;20385;-71
2022/04/07 08:19:35;;;;;;;4.40;1.47;;;;;;;15.68;54.37;100954.56;5075871;28;20052;-71
2022/04/07 08:22:03;;;;;;;9.13;2.43;;;;;;;15.59;54.31;100964.84;5073439;28;20482;-71
2022/04/07 08:24:30;;;;;;;6.43;1.80;;;;;;;15.70;54.61;100965.53;5068337;28;20075;-71
2022/04/07 08:26:57;;;;;;;4.70;1.80;;;;;;;15.61;54.72;100940.00;5070165;28;20053;-72
2022/04/07 08:29:24;;;;;;;10.63;1.80;;;;;;;15.84;54.22;100967.28;5072507;28;20506;-71
2022/04/07 08:31:53;;;;;;;4.03;1.63;;;;;;;15.87;54.83;100975.13;5071902;28;20091;-71
2022/04/07 08:34:20;;;;;;;6.38;1.70;;;;;;;15.87;54.28;100972.31;5073377;28;20178;-71
2022/04/07 08:36:48;;;;;;;11.50;2.20;;;;;;;15.90;54.70;100965.22;5072278;28;20200;-72
2022/04/07 08:39:14;;;;;;;5.87;1.93;;;;;;;15.99;54.87;100968.16;5073491;28;20506;-71
2022/04/07 08:41:45;;;;;;;7.90;1.53;;;;;;;16.15;54.47;100978.03;5072786;28;20090;-74
2022/04/07 08:44:12;;;;;;;13.87;1.60;;;;;;;16.25;54.41;100991.13;5054342;28;20066;-74
2022/04/07 08:46:40;;;;;;;5.30;1.65;;;;;;;16.07;54.78;100944.94;5072406;28;20131;-75
2022/04/07 08:49:08;;;;;;;5.88;1.33;;;;;;;16.27;54.44;100957.81;5077945;28;20131;-74
2022/04/07 08:51:35;;;;;;;4.20;1.83;;;;;;;16.46;54.09;100977.50;5073797;28;20094;-74
2022/04/07 08:54:02;;;;;;;4.03;1.27;;;;;;;16.51;54.50;100980.22;5068351;28;20135;-73
2022/04/07 08:56:28;;;;;;;6.65;1.63;;;;;;;16.76;54.40;100993.88;5073802;28;20128;-74
2022/04/07 08:58:55;;;;;;;2.58;1.23;;;;;;;17.03;54.12;101011.97;5069565;28;20135;-74
2022/04/07 09:01:22;;;;;;;4.20;1.40;;;;;;;17.17;53.75;101017.63;5072554;28;20442;-74
2022/04/07 09:03:49;;;;;;;5.97;2.22;;;;;;;17.16;53.83;101010.28;5072459;28;20052;-74
2022/04/07 09:06:20;;;;;;;2.80;1.13;;;;;;;17.11;54.08;100997.13;5071341;28;20045;-74
2022/04/07 09:08:46;;;;;;;;;;;;;;;17.27;53.82;101020.25;5071741;28;20143;-73
2022/04/07 09:11:13;;;;;;;4.55;1.30;;;;;;;17.39;54.03;101028.16;5078078;28;20019;-74
2022/04/07 09:13:42;;;;;;;7.40;1.85;;;;;;;17.41;54.22;101014.56;5061481;28;20483;-72
2022/04/07 09:16:12;;;;;;;7.15;1.40;;;;;;;17.70;54.08;101006.56;5067906;28;20231;-72
2022/04/07 09:18:42;;;;;;;13.77;2.03;;;;;;;18.28;53.79;101024.69;5074851;28;20078;-72
2022/04/07 09:21:18;;;;;;;8.75;1.30;;;;;;;18.54;53.09;101019.25;5070041;28;20083;-72
2022/04/07 09:23:48;;;;;;;6.75;1.40;;;;;;;18.54;52.82;101002.28;5052483;28;20568;-72
2022/04/07 09:26:16;;;;;;;5.30;1.83;;;;;;;18.70;52.49;101029.00;5071891;28;20515;-72
2022/04/07 09:28:43;;;;;;;9.32;2.35;;;;;;;18.68;52.61;101031.31;5070248;28;20171;-71
2022/04/07 09:31:14;;;;;;;4.55;1.45;;;;;;;18.65;52.31;101003.66;5073407;28;20135;-72
2022/04/07 09:33:42;;;;;;;4.53;1.35;;;;;;;18.79;52.43;101040.38;5049206;28;20053;-71
2022/04/07 09:36:10;;;;;;;6.80;1.33;;;;;;;18.87;52.55;101027.44;5080959;28;20048;-72
2022/04/07 09:38:39;;;;;;;4.47;1.38;;;;;;;18.97;51.99;101003.69;5069434;28;20057;-71
2022/04/07 09:41:11;;;;;;;10.60;1.85;;;;;;;19.58;51.06;101033.84;5072520;28;20135;-72
2022/04/07 09:43:53;;;;;;;3.58;1.25;;;;;;;19.62;50.68;101036.88;5053370;28;20052;-71
2022/04/07 09:46:21;;;;;;;3.17;1.38;;;;;;;19.79;50.60;101041.75;5072630;28;20102;-72
2022/04/07 09:49:09;;;;;;;3.60;1.30;;;;;;;19.79;50.20;101047.44;5069435;28;20052;-71
2022/04/07 09:51:48;;;;;;;4.13;0.98;;;;;;;19.48;50.06;101024.84;5071599;28;20071;-72
2022/04/07 09:54:17;;;;;;;4.70;1.88;;;;;;;19.90;49.53;101048.81;5067611;28;20057;-72
2022/04/07 09:56:47;;;;;;;4.30;1.13;;;;;;;20.10;49.17;101036.81;5061017;28;20140;-70
2022/04/07 09:59:19;;;;;;;3.88;1.02;;;;;;;20.40;48.40;101051.13;5071120;28;20047;-72
2022/04/07 10:01:49;;;;;;;3.58;0.90;;;;;;;20.23;48.56;101054.81;5067530;28;20507;-73
2022/04/07 10:04:17;;;;;;;4.40;1.98;;;;;;;19.94;48.86;101049.81;5076794;28;20102;-71
2022/04/07 10:06:45;;;;;;;7.75;1.50;;;;;;;19.55;48.68;101017.50;5063157;28;20163;-72
2022/04/07 10:09:14;;;;;;;6.50;1.30;;;;;;;19.58;48.92;101065.03;5070880;28;20080;-72
2022/04/07 10:11:42;;;;;;;4.65;1.42;;;;;;;19.30;48.21;101070.09;5070380;28;20137;-73
2022/04/07 10:14:11;;;;;;;6.55;1.30;;;;;;;18.80;48.47;101052.53;5072699;28;20090;-77
2022/04/07 10:16:44;;;;;;;5.07;1.35;;;;;;;18.47;48.73;101052.81;5071458;28;20064;-72
2022/04/07 10:19:35;;;;;;;9.52;1.17;;;;;;;18.36;49.00;101055.06;5071908;28;20511;-72
2022/04/07 10:22:17;;;;;;;6.13;1.30;;;;;;;18.33;48.96;101063.34;5058778;28;20503;-73
2022/04/07 10:24:47;;;;;;;3.90;0.98;;;;;;;18.51;49.18;101062.31;5058210;28;20056;-72
2022/04/07 10:27:38;;;;;;;8.73;1.58;;;;;;;18.65;48.94;101059.41;5071222;28;20040;-71
2022/04/07 10:30:11;;;;;;;7.35;0.80;;;;;;;18.72;48.55;101058.97;5054668;28;20059;-72
2022/04/07 10:32:43;;;;;;;2.85;1.17;;;;;;;18.69;48.95;101058.41;5071090;28;20049;-72
2022/04/07 10:35:29;;;;;;;6.13;0.90;;;;;;;18.55;49.24;101052.00;5070625;28;20060;-73
2022/04/07 10:38:00;;;;;;;3.92;0.95;;;;;;;18.55;49.04;101048.34;5067438;28;20495;-71
2022/04/07 10:40:56;;;;;;;6.47;1.20;;;;;;;18.42;49.40;101062.22;5053062;28;20495;-72
2022/04/07 10:43:25;;;;;;;5.47;1.00;;;;;;;18.34;49.25;101065.00;5061289;28;20094;-72
2022/04/07 10:45:58;;;;;;;;;;;;;;;18.31;49.43;101072.13;5075214;28;20453;-73
2022/04/07 10:48:30;;;;;;;3.45;1.08;;;;;;;18.19;49.15;101023.81;5074231;28;19944;-71
2022/04/07 10:51:08;;;;;;;4.75;1.17;;;;;;;18.30;49.08;101059.16;5066548;28;20099;-75
2022/04/07 10:53:40;;;;;;;3.58;1.00;;;;;;;18.35;49.22;101069.50;5070772;28;20131;-73
2022/04/07 10:56:09;;;;;;;5.68;1.00;;;;;;;18.23;49.54;101070.91;5064589;28;20077;-72
2022/04/07 10:58:49;;;;;;;3.97;1.40;;;;;;;18.02;49.74;101068.88;5067950;28;20573;-73
2022/04/07 11:01:38;;;;;;;3.90;1.00;;;;;;;17.88;50.35;101057.59;5068844;28;20078;-72
2022/04/07 11:04:20;;;;;;;12.95;2.28;;;;;;;17.98;49.87;101071.50;5071232;28;20474;-71
2022/04/07 11:09:57;;;;;;;11.57;4.70;;;;;;;17.67;50.49;101074.97;5074744;28;20132;-72
2022/04/07 11:12:30;;;;;;;3.65;2.08;;;;;;;17.57;50.68;101072.38;5074096;28;20036;-71
2022/04/07 11:15:03;;;;;;;2.05;1.05;;;;;;;17.47;51.16;101069.75;5073289;28;20076;-72
2022/04/07 11:17:34;;;;;;;10.10;1.48;;;;;;;17.39;51.42;101057.22;5073745;28;20106;-72
2022/04/07 11:20:25;;;;;;;4.43;1.08;;;;;;;16.90;51.80;101009.97;5074839;28;20095;-72
2022/04/07 11:22:54;;;;;;;;;;;;;;;17.10;52.20;101057.53;5077151;28;20519;-72
2022/04/07 11:25:29;;;;;;;6.10;1.40;;;;;;;17.08;52.23;101057.00;5071299;28;20300;-72
2022/04/07 11:28:19;;;;;;;8.40;1.83;;;;;;;17.17;52.26;101055.16;5075366;28;20087;-72
2022/04/07 11:30:48;;;;;;;2.42;1.00;;;;;;;17.26;52.34;101063.69;5072993;28;20136;-71
2022/04/07 11:33:23;;;;;;;7.03;2.17;;;;;;;17.35;52.53;101055.34;5072335;28;20080;-73
2022/04/07 11:36:06;;;;;;;7.25;1.60;;;;;;;17.67;52.69;101049.56;5073593;28;20155;-73